Ester, AK (99725)

12:11 AM AKDT on September 29, 2016 (GMT -0800)
EsterOldRidgeTrl | | Change Station

Elev 1200 ft 64.83 °N, 148.18 °W | Updated 8 minutes ago

Light Rain
Light Rain
39.7 °F
Feels Like 37 °F
N
3.7
Wind Variable Wind from ESE

Today
High -- | Low -- °F
--% Chance of Precip.
Yesterday
High -- | Low -- °F
Precip. -- in
Pressure 30.37 in
Visibility 10.0 miles
Clouds Scattered Clouds 3000 ft
Mostly Cloudy 4000 ft
Mostly Cloudy 5500 ft
Windchill 37 °F
Dew Point 39 °F
Humidity 98%
Rainfall 0.00 in
Snow Depth Not available.
7:58 AM 7:25 PM
Waning Crescent, 3% visible
METAR PAFA 290753Z 26012G20KT 10SM -RA SCT030 BKN040 BKN055 07/04 A3034 RMK AO2 PK WND 27027/0710 RAB09SNB09E27 SLP282 P0003 T00670044 $
Pressure 30.37 in
Visibility 10.0 miles
Clouds Scattered Clouds 3000 ft
Mostly Cloudy 4000 ft
Mostly Cloudy 5500 ft
Windchill 37 °F
Dew Point 39 °F
Humidity 98%
Rainfall 0.00 in
Snow Depth Not available.
7:58 AM 7:25 PM
Waning Crescent, 3% visible
METAR PAFA 290753Z 26012G20KT 10SM -RA SCT030 BKN040 BKN055 07/04 A3034 RMK AO2 PK WND 27027/0710 RAB09SNB09E27 SLP282 P0003 T00670044 $

10-Day Weather Forecast

Almanac

Astronomy

Sep. 29, 2016 Rise Set
Actual Time
Civil Twilight
Nautical Twilight
Astronomical Twilight
Moon
Length of Visible Light
Length of Day
Tomorrow will be .
, % of the Moon is Illuminated

Today's Extremes

State Highs State Lows

Community

WunderPhotos

Upload Photos

1,942,446 photos uploaded!

WunderBlog® & News

Nearby

Air Quality

  Air Quality AQ Index Pollutant
Not available.

Snow Depth

Station Depth Elevation

Earthquake Activity

City Distance Mag. Time & Date
Minimum magnitude displayed is 2.5.

Coastal Water Temperatures

Place Temperature

Stations

Nearby Weather Stations

Station Location Temp. Windchill Dew Point Humidity Wind Precip. Elev Updated Type
                   

Watches & Warnings

There are currently no watches in effect.